Mexican Hat, Utah
Current Conditions -  °F | °C
As of 10:15 PM on Sunday 19 Oct 2014 (Local Time) from KBDG Reporting Station
Scattered Clouds Scattered Clouds  
Wind Chill: 56°   Ceiling: Unl
Heat Index: 56°   Visibility: 10mi
Dew Point: 39°   Wind: 5mph
Humidity: 53%   Direction: 100°E
Pressure: 30.25"   Gusts: NA
Location:  37.15°N, 109.86°W
Report Text: KBDG 200415Z AUTO 10004KT 10SM SCT090 14/04 A3025 RMK AO1 T01350041
Loading
Personal Weather Stations






























Interactive Weather Map New forecast layout! Learn more

10-Day Weather Forecast

Advertisements
Track Severe Weather on mobile